Time;durP1;ratioP1;P1;durP2;ratioP2;P2;SDS_P1;SDS_P2;PMS_P1;PMS_P2;Temp;Humidity;BMP_temperature;BMP_pressure;BME280_temperature;BME280_humidity;BME280_pressure;Samples;Min_cycle;Max_cycle;Signal;HPM_P1;HPM_P2
2023/05/30 00:00:28;;;;;;;21.80;5.07;;;;;;;11.67;100.00;102535.50;5025766;28;20640;-74
2023/05/30 00:02:54;;;;;;;23.23;5.03;;;;;;;11.63;100.00;102538.75;4978627;28;20257;-73
2023/05/30 00:05:20;;;;;;;20.63;4.90;;;;;;;11.58;100.00;102535.09;5010383;28;20223;-74
2023/05/30 00:07:46;;;;;;;21.27;4.50;;;;;;;11.55;100.00;102542.63;5009846;28;20195;-75
2023/05/30 00:10:12;;;;;;;19.10;5.00;;;;;;;11.51;100.00;102539.06;5021496;28;20222;-74
2023/05/30 00:12:40;;;;;;;18.00;4.83;;;;;;;11.52;100.00;102522.88;4992926;28;20195;-73
2023/05/30 00:15:07;;;;;;;17.60;4.20;;;;;;;11.47;100.00;102536.34;5007227;28;20318;-75
2023/05/30 00:17:35;;;;;;;17.30;4.53;;;;;;;11.45;100.00;102541.38;5010953;28;20199;-74
2023/05/30 00:20:04;;;;;;;15.63;4.20;;;;;;;11.42;100.00;102536.13;4992951;28;20218;-74
2023/05/30 00:22:30;;;;;;;20.17;4.40;;;;;;;11.42;100.00;102535.22;5010261;28;20206;-75
2023/05/30 00:24:59;;;;;;;16.40;4.70;;;;;;;11.36;100.00;102529.84;5010521;28;20202;-74
2023/05/30 00:27:25;;;;;;;20.87;4.73;;;;;;;11.36;100.00;102532.41;5010362;28;20199;-74
2023/05/30 00:29:50;;;;;;;18.97;4.50;;;;;;;11.30;100.00;102538.13;5003936;28;20215;-75
2023/05/30 00:32:16;;;;;;;16.87;4.37;;;;;;;11.25;100.00;102542.19;5006928;28;20679;-74
2023/05/30 00:34:44;;;;;;;20.37;4.20;;;;;;;11.27;100.00;102540.59;4989200;28;20294;-73
2023/05/30 00:37:11;;;;;;;24.07;4.53;;;;;;;11.17;100.00;102537.56;4989484;28;20281;-74
2023/05/30 00:39:36;;;;;;;15.40;4.27;;;;;;;11.17;100.00;102546.13;5010062;28;20927;-74
2023/05/30 00:42:04;;;;;;;18.17;4.37;;;;;;;11.14;100.00;102538.28;5006803;28;20715;-74
2023/05/30 00:44:29;;;;;;;17.83;4.47;;;;;;;11.11;100.00;102533.03;5025360;28;20222;-75
2023/05/30 00:46:55;;;;;;;18.47;4.93;;;;;;;11.08;100.00;102532.00;5005236;28;20249;-74
2023/05/30 00:49:24;;;;;;;25.77;5.03;;;;;;;11.03;100.00;102534.41;5010224;28;20567;-74
2023/05/30 00:51:50;;;;;;;18.10;4.67;;;;;;;11.01;100.00;102540.25;5009741;28;20672;-76
2023/05/30 00:54:17;;;;;;;21.30;4.27;;;;;;;10.99;100.00;102534.16;4978182;28;20293;-75
2023/05/30 00:56:43;;;;;;;19.30;5.20;;;;;;;10.98;100.00;102524.72;5000422;28;20202;-74
2023/05/30 00:59:09;;;;;;;17.30;4.67;;;;;;;10.92;100.00;102524.47;4992077;28;20552;-73
2023/05/30 01:01:37;;;;;;;16.73;4.57;;;;;;;10.89;100.00;102526.88;4991998;28;20214;-75
2023/05/30 01:04:02;;;;;;;15.60;4.40;;;;;;;10.84;100.00;102523.25;5008335;28;20370;-74
2023/05/30 01:06:30;;;;;;;19.67;4.50;;;;;;;10.76;100.00;102525.47;5009350;28;20282;-74
2023/05/30 01:08:59;;;;;;;18.13;5.00;;;;;;;10.73;100.00;102532.13;4975386;28;20191;-74
2023/05/30 01:11:54;;;;;;;24.33;5.17;;;;;;;10.72;100.00;102533.81;4990176;28;20210;-75
2023/05/30 01:14:37;;;;;;;14.80;4.03;;;;;;;10.72;100.00;102530.34;4991260;28;20262;-74
2023/05/30 01:17:30;;;;;;;17.77;4.97;;;;;;;10.74;100.00;102528.75;4990278;28;20194;-74
2023/05/30 01:20:12;;;;;;;18.03;4.77;;;;;;;10.71;100.00;102532.06;4975528;28;20593;-74
2023/05/30 01:22:49;;;;;;;16.60;4.50;;;;;;;10.72;100.00;102523.56;4993439;28;20861;-75
2023/05/30 01:25:38;;;;;;;17.63;4.50;;;;;;;10.66;100.00;102537.78;4992654;28;20191;-74
2023/05/30 01:28:12;;;;;;;17.90;4.67;;;;;;;10.65;100.00;102538.59;4990867;28;20195;-74
2023/05/30 01:30:42;;;;;;;16.67;4.57;;;;;;;10.63;100.00;102537.63;5006600;28;20334;-74
2023/05/30 01:33:09;;;;;;;27.23;5.20;;;;;;;10.66;100.00;102548.91;4991660;28;20227;-75
2023/05/30 01:35:35;;;;;;;20.27;4.40;;;;;;;10.64;100.00;102558.19;5007987;28;20191;-74
2023/05/30 01:38:01;;;;;;;16.13;4.30;;;;;;;10.58;100.00;102544.22;5006229;28;20198;-75
2023/05/30 01:40:28;;;;;;;11.87;4.13;;;;;;;10.56;100.00;102544.13;4990279;28;20210;-74
2023/05/30 01:43:01;;;;;;;15.83;4.23;;;;;;;10.53;100.00;102544.00;4992547;28;20207;-73
2023/05/30 01:45:44;;;;;;;24.43;5.17;;;;;;;10.53;100.00;102554.25;4991038;28;20281;-74
2023/05/30 01:48:18;;;;;;;11.00;3.73;;;;;;;10.48;100.00;102555.72;4973055;28;20313;-73
2023/05/30 01:50:49;;;;;;;16.33;4.10;;;;;;;10.39;100.00;102565.53;5007375;28;20215;-75
2023/05/30 01:53:25;;;;;;;17.20;4.47;;;;;;;10.43;100.00;102564.88;4993695;28;20310;-74
2023/05/30 01:55:54;;;;;;;20.73;4.53;;;;;;;10.42;100.00;102573.34;4990148;28;20191;-75
2023/05/30 01:58:23;;;;;;;19.90;4.33;;;;;;;10.36;100.00;102567.94;5007384;28;20723;-74
2023/05/30 02:00:49;;;;;;;12.93;3.80;;;;;;;10.36;100.00;102567.94;4991578;28;20223;-74
2023/05/30 02:03:15;;;;;;;14.43;3.93;;;;;;;10.35;100.00;102570.41;4990857;28;20195;-74
2023/05/30 02:05:41;;;;;;;18.90;4.63;;;;;;;10.35;100.00;102561.06;5007264;28;20282;-74
2023/05/30 02:08:06;;;;;;;14.30;4.23;;;;;;;10.35;100.00;102565.31;4990902;28;20354;-74
2023/05/30 02:10:32;;;;;;;16.13;3.90;;;;;;;10.31;100.00;102574.53;4974544;28;20253;-75
2023/05/30 02:12:57;;;;;;;15.43;4.43;;;;;;;10.26;100.00;102573.44;4990786;28;20187;-74
2023/05/30 02:15:23;;;;;;;20.33;4.67;;;;;;;10.26;100.00;102570.88;4990108;28;21026;-74
2023/05/30 02:17:48;;;;;;;14.60;4.17;;;;;;;10.23;100.00;102565.59;4977584;28;20202;-74
2023/05/30 02:20:13;;;;;;;16.50;4.03;;;;;;;10.25;100.00;102565.69;5009437;28;20230;-75
2023/05/30 02:22:39;;;;;;;11.23;3.47;;;;;;;10.21;100.00;102568.88;5007395;28;20187;-74
2023/05/30 02:25:09;;;;;;;18.03;4.80;;;;;;;10.18;100.00;102567.06;5006350;28;20195;-73
2023/05/30 02:27:34;;;;;;;12.77;4.10;;;;;;;10.16;100.00;102575.47;4990920;28;20685;-74
2023/05/30 02:30:00;;;;;;;16.17;4.57;;;;;;;10.14;100.00;102580.50;4990228;28;20223;-74
2023/05/30 02:32:25;;;;;;;13.93;3.70;;;;;;;10.17;100.00;102585.78;4989728;28;20930;-73
2023/05/30 02:34:51;;;;;;;16.30;4.27;;;;;;;10.12;100.00;102583.78;4990870;28;20210;-74
2023/05/30 02:37:16;;;;;;;18.20;4.23;;;;;;;10.08;100.00;102581.88;4984902;28;20214;-75
2023/05/30 02:39:42;;;;;;;18.40;4.97;;;;;;;10.07;100.00;102583.59;5007163;28;20274;-74
2023/05/30 02:42:08;;;;;;;12.37;4.33;;;;;;;10.03;100.00;102575.63;4989724;28;20258;-74
2023/05/30 02:44:34;;;;;;;15.80;3.50;;;;;;;10.02;100.00;102579.88;4990709;28;20190;-74
2023/05/30 02:47:01;;;;;;;15.67;3.93;;;;;;;10.00;100.00;102580.63;4990638;28;20214;-74
2023/05/30 02:49:27;;;;;;;14.90;3.90;;;;;;;9.98;100.00;102583.09;4990109;28;20191;-73
2023/05/30 02:51:53;;;;;;;12.87;3.60;;;;;;;9.98;100.00;102584.75;4990483;28;20226;-75
2023/05/30 02:54:23;;;;;;;14.07;3.90;;;;;;;9.97;100.00;102589.03;4990215;28;20353;-73
2023/05/30 02:57:21;;;;;;;11.63;3.17;;;;;;;9.98;100.00;102590.78;4974527;28;20198;-73
2023/05/30 03:00:15;;;;;;;12.93;4.20;;;;;;;9.93;100.00;102587.09;4988489;28;20845;-74
2023/05/30 03:02:47;;;;;;;16.70;3.83;;;;;;;9.90;100.00;102584.38;4983862;28;20557;-73
2023/05/30 03:05:12;;;;;;;15.20;4.00;;;;;;;9.91;100.00;102586.13;4990563;28;20198;-73
2023/05/30 03:07:38;;;;;;;20.47;4.43;;;;;;;9.89;100.00;102591.97;4995164;28;20218;-74
2023/05/30 03:10:05;;;;;;;17.90;4.30;;;;;;;9.90;100.00;102599.75;4973575;28;20299;-73
2023/05/30 03:12:31;;;;;;;16.40;4.30;;;;;;;9.83;100.00;102594.25;4990164;28;20286;-73
2023/05/30 03:14:57;;;;;;;14.93;4.07;;;;;;;9.88;100.00;102593.69;4990254;28;20241;-73
2023/05/30 03:17:24;;;;;;;14.47;3.73;;;;;;;9.82;100.00;102607.84;4987897;28;20202;-73
2023/05/30 03:19:49;;;;;;;14.03;4.27;;;;;;;9.85;100.00;102601.19;4990685;28;20772;-73
2023/05/30 03:22:16;;;;;;;14.37;3.83;;;;;;;9.85;100.00;102600.31;4979302;28;20198;-74
2023/05/30 03:24:41;;;;;;;10.90;3.87;;;;;;;9.82;100.00;102601.03;4990039;28;20187;-74
2023/05/30 03:27:07;;;;;;;13.53;4.37;;;;;;;9.83;100.00;102604.47;4990301;28;20264;-73
2023/05/30 03:29:33;;;;;;;13.00;3.90;;;;;;;9.81;100.00;102608.66;4989975;28;20195;-74
2023/05/30 03:32:00;;;;;;;10.83;3.57;;;;;;;9.82;100.00;102603.59;4988483;28;20691;-74
2023/05/30 03:34:26;;;;;;;9.93;3.77;;;;;;;9.81;100.00;102603.53;4990304;28;20203;-73
2023/05/30 03:36:52;;;;;;;18.47;4.23;;;;;;;9.78;100.00;102614.50;4990253;28;20302;-74
2023/05/30 03:39:19;;;;;;;12.10;4.07;;;;;;;9.86;100.00;102615.72;5006357;28;20206;-73
2023/05/30 03:41:45;;;;;;;16.73;4.37;;;;;;;9.83;100.00;102619.81;4991414;28;20219;-73
2023/05/30 03:44:10;;;;;;;13.50;3.63;;;;;;;9.80;100.00;102617.09;4998039;28;20322;-72
2023/05/30 03:46:39;;;;;;;17.67;4.50;;;;;;;9.84;100.00;102617.34;4998859;28;20850;-73
2023/05/30 03:49:04;;;;;;;14.10;4.23;;;;;;;9.91;100.00;102628.78;5011676;28;20203;-73
2023/05/30 03:51:30;;;;;;;18.00;4.30;;;;;;;9.91;100.00;102623.66;4999343;28;20598;-74
2023/05/30 03:53:56;;;;;;;13.60;3.77;;;;;;;9.93;100.00;102634.84;4993923;28;20270;-73
2023/05/30 03:56:22;;;;;;;15.63;4.93;;;;;;;9.95;100.00;102638.38;5012228;28;20652;-74
2023/05/30 03:58:47;;;;;;;20.07;3.87;;;;;;;10.03;100.00;102637.06;5012020;28;20199;-75
2023/05/30 04:01:14;;;;;;;13.57;4.60;;;;;;;10.04;100.00;102637.16;4992743;28;20572;-74
2023/05/30 04:03:42;;;;;;;17.93;3.83;;;;;;;10.07;100.00;102642.44;5011646;28;20253;-74
2023/05/30 04:06:08;;;;;;;13.80;4.13;;;;;;;10.13;100.00;102645.31;4995459;28;20199;-75
2023/05/30 04:08:36;;;;;;;14.07;4.50;;;;;;;10.21;100.00;102646.56;4993400;28;20635;-73
2023/05/30 04:11:03;;;;;;;14.00;4.00;;;;;;;10.27;100.00;102640.88;4992746;28;20222;-76
2023/05/30 04:13:28;;;;;;;14.17;4.23;;;;;;;10.36;100.00;102647.31;4993118;28;20630;-73
2023/05/30 04:15:54;;;;;;;17.03;4.53;;;;;;;10.48;100.00;102644.47;5009837;28;20193;-73
2023/05/30 04:18:20;;;;;;;13.63;4.40;;;;;;;10.61;100.00;102642.59;5024226;28;20287;-73
2023/05/30 04:20:45;;;;;;;12.07;4.67;;;;;;;10.67;100.00;102648.00;4994051;28;20264;-74
2023/05/30 04:23:11;;;;;;;14.63;3.97;;;;;;;10.79;100.00;102645.16;4981181;28;20593;-72
2023/05/30 04:25:36;;;;;;;15.07;4.13;;;;;;;10.85;100.00;102640.31;4999576;28;20199;-74
2023/05/30 04:28:05;;;;;;;17.40;4.00;;;;;;;10.89;100.00;102640.53;4993864;28;20199;-74
2023/05/30 04:30:32;;;;;;;12.53;3.73;;;;;;;10.96;100.00;102642.56;4993550;28;20207;-73
2023/05/30 04:32:57;;;;;;;16.67;4.30;;;;;;;11.02;100.00;102630.03;5004196;28;20290;-73
2023/05/30 04:35:23;;;;;;;15.27;4.37;;;;;;;11.09;100.00;102637.19;4993085;28;20669;-73
2023/05/30 04:37:53;;;;;;;11.17;4.20;;;;;;;11.08;100.00;102638.00;4999721;28;20547;-74
2023/05/30 04:40:19;;;;;;;17.23;4.27;;;;;;;11.17;100.00;102650.38;4989134;28;20222;-75
2023/05/30 04:42:51;;;;;;;13.47;4.30;;;;;;;11.16;100.00;102641.78;5024029;28;20195;-74
2023/05/30 04:45:18;;;;;;;13.63;4.97;;;;;;;11.22;100.00;102642.09;5009746;28;20195;-73
2023/05/30 04:47:47;;;;;;;21.50;4.97;;;;;;;11.31;100.00;102649.31;5006911;28;20191;-73
2023/05/30 04:50:14;;;;;;;15.93;4.20;;;;;;;11.38;100.00;102649.66;4968038;28;20225;-74
2023/05/30 04:52:43;;;;;;;14.40;4.90;;;;;;;11.47;100.00;102638.94;5010214;28;20229;-74
2023/05/30 04:55:17;;;;;;;17.97;4.13;;;;;;;11.61;100.00;102640.47;5011531;28;20712;-73
2023/05/30 04:57:43;;;;;;;15.23;4.77;;;;;;;11.69;100.00;102650.25;4992896;28;20242;-73
2023/05/30 05:00:15;;;;;;;15.03;4.73;;;;;;;11.71;100.00;102638.34;5002857;28;20218;-73
2023/05/30 05:02:44;;;;;;;15.90;4.47;;;;;;;11.79;100.00;102641.22;4993791;28;20202;-73
2023/05/30 05:05:10;;;;;;;18.23;5.30;;;;;;;11.95;100.00;102641.97;4993110;28;20218;-75
2023/05/30 05:07:35;;;;;;;18.00;4.53;;;;;;;12.07;100.00;102645.06;4994632;28;20214;-73
2023/05/30 05:10:01;;;;;;;17.13;4.97;;;;;;;12.16;100.00;102647.16;5010854;28;20218;-74
2023/05/30 05:12:26;;;;;;;14.73;4.77;;;;;;;12.37;100.00;102654.03;5009868;28;20202;-74
2023/05/30 05:14:54;;;;;;;16.10;4.17;;;;;;;12.52;100.00;102649.53;5009354;28;20238;-72
2023/05/30 05:17:19;;;;;;;13.87;4.37;;;;;;;12.58;100.00;102646.34;5006080;28;20640;-72
2023/05/30 05:19:44;;;;;;;14.20;4.70;;;;;;;12.78;100.00;102646.31;4992920;28;20198;-72
2023/05/30 05:22:10;;;;;;;15.07;3.93;;;;;;;12.81;100.00;102636.13;5007222;28;20293;-71
2023/05/30 05:24:36;;;;;;;17.90;4.90;;;;;;;13.01;100.00;102648.91;4992325;28;20198;-71
2023/05/30 05:27:05;;;;;;;14.83;4.50;;;;;;;12.93;100.00;102658.00;5009434;28;20698;-73
2023/05/30 05:29:31;;;;;;;15.50;4.80;;;;;;;12.84;100.00;102649.09;5008625;28;20194;-74
2023/05/30 05:31:56;;;;;;;16.23;4.43;;;;;;;12.79;100.00;102660.91;5009222;28;20286;-73
2023/05/30 05:34:22;;;;;;;17.60;5.07;;;;;;;12.85;100.00;102661.13;5002984;28;20235;-72
2023/05/30 05:36:47;;;;;;;19.53;5.70;;;;;;;12.83;100.00;102665.34;4992324;28;20223;-74
2023/05/30 05:39:13;;;;;;;16.20;4.40;;;;;;;12.78;100.00;102661.72;5009044;28;20202;-73
2023/05/30 05:41:39;;;;;;;13.83;4.50;;;;;;;12.73;100.00;102658.06;5008707;28;20230;-74
2023/05/30 05:44:04;;;;;;;25.63;5.70;;;;;;;12.73;100.00;102659.78;5005935;28;20203;-72
2023/05/30 05:46:30;;;;;;;13.70;4.70;;;;;;;12.82;100.00;102665.28;5009609;28;20201;-73
2023/05/30 05:48:55;;;;;;;17.73;5.20;;;;;;;12.90;100.00;102664.75;5022709;28;20195;-73
2023/05/30 05:51:21;;;;;;;12.77;4.37;;;;;;;12.93;100.00;102672.63;5005522;28;20223;-72
2023/05/30 05:53:46;;;;;;;15.63;5.37;;;;;;;12.75;100.00;102671.00;5009470;28;20217;-74
2023/05/30 05:56:12;;;;;;;15.30;5.30;;;;;;;12.79;100.00;102667.72;4992001;28;20281;-74
2023/05/30 05:58:37;;;;;;;19.37;5.00;;;;;;;12.88;100.00;102667.25;5009646;28;20848;-73
2023/05/30 06:01:03;;;;;;;15.73;5.17;;;;;;;12.93;100.00;102670.88;5002311;28;20230;-72
2023/05/30 06:03:28;;;;;;;15.17;5.17;;;;;;;12.91;100.00;102675.94;5003677;28;20199;-73
2023/05/30 06:05:54;;;;;;;18.87;5.23;;;;;;;12.93;100.00;102678.56;5003410;28;20191;-74
2023/05/30 06:08:19;;;;;;;16.93;4.83;;;;;;;12.94;100.00;102684.66;4973329;28;20319;-75
2023/05/30 06:10:45;;;;;;;17.53;4.90;;;;;;;13.01;100.00;102672.03;5005556;28;20568;-74
2023/05/30 06:13:10;;;;;;;18.30;4.70;;;;;;;12.99;100.00;102679.72;5006338;28;20218;-74
2023/05/30 06:15:36;;;;;;;16.57;5.43;;;;;;;13.13;100.00;102678.56;5006952;28;20314;-73
2023/05/30 06:18:01;;;;;;;17.47;5.93;;;;;;;13.18;100.00;102668.44;4985857;28;20298;-73
2023/05/30 06:20:27;;;;;;;16.57;5.20;;;;;;;13.32;100.00;102668.16;5005145;28;20211;-73
2023/05/30 06:22:52;;;;;;;16.53;5.17;;;;;;;13.36;100.00;102671.72;5007982;28;20286;-73
2023/05/30 06:25:17;;;;;;;14.60;5.13;;;;;;;13.48;100.00;102674.75;5007364;28;20199;-73
2023/05/30 06:27:43;;;;;;;16.63;5.37;;;;;;;13.36;100.00;102675.16;5005514;28;20249;-74
2023/05/30 06:30:09;;;;;;;18.53;4.83;;;;;;;13.41;100.00;102681.38;5004456;28;20766;-74
2023/05/30 06:32:34;;;;;;;15.63;5.43;;;;;;;13.38;100.00;102688.97;5002185;28;20197;-73
2023/05/30 06:35:00;;;;;;;14.83;5.57;;;;;;;13.41;100.00;102685.63;5010974;28;21088;-74
2023/05/30 06:37:25;;;;;;;16.50;5.27;;;;;;;13.48;100.00;102683.31;5011480;28;20285;-74
2023/05/30 06:39:51;;;;;;;14.17;4.90;;;;;;;13.61;100.00;102682.06;4988635;28;20242;-76
2023/05/30 06:42:16;;;;;;;16.77;5.17;;;;;;;13.70;100.00;102679.84;5009951;28;20205;-75
2023/05/30 06:44:43;;;;;;;13.57;5.20;;;;;;;13.85;100.00;102667.53;4993348;28;20179;-75
2023/05/30 06:47:08;;;;;;;16.20;5.47;;;;;;;13.87;100.00;102668.44;4992391;28;20202;-74
2023/05/30 06:49:34;;;;;;;18.33;5.37;;;;;;;14.02;100.00;102668.97;4989091;28;20191;-75
2023/05/30 06:51:59;;;;;;;15.13;5.43;;;;;;;13.98;100.00;102686.03;5010381;28;20211;-75
2023/05/30 06:54:25;;;;;;;14.43;4.70;;;;;;;14.14;100.00;102659.09;4995372;28;20264;-74
2023/05/30 06:56:51;;;;;;;18.43;5.50;;;;;;;14.36;100.00;102661.63;5007631;28;20285;-75
2023/05/30 06:59:16;;;;;;;12.23;4.77;;;;;;;14.53;100.00;102619.19;5007021;28;20282;-74
2023/05/30 07:01:42;;;;;;;13.40;4.83;;;;;;;14.54;100.00;102626.13;5008779;28;20221;-74
2023/05/30 07:04:07;;;;;;;16.73;5.00;;;;;;;14.67;100.00;102657.50;4988530;28;20198;-74
2023/05/30 07:06:33;;;;;;;14.80;4.63;;;;;;;14.90;100.00;102624.66;5004678;28;20197;-74
2023/05/30 07:08:58;;;;;;;14.40;4.90;;;;;;;15.24;100.00;102580.97;5010886;28;20680;-75
2023/05/30 07:11:24;;;;;;;16.17;4.43;;;;;;;15.26;100.00;102587.94;5006661;28;20207;-73
2023/05/30 07:13:49;;;;;;;12.10;4.70;;;;;;;15.10;100.00;102569.38;5008958;28;20683;-74
2023/05/30 07:16:15;;;;;;;10.97;4.17;;;;;;;15.29;100.00;102545.84;5004479;28;20199;-73
2023/05/30 07:18:41;;;;;;;13.30;4.40;;;;;;;15.29;100.00;102554.44;5006591;28;20195;-73
2023/05/30 07:21:07;;;;;;;13.73;4.63;;;;;;;15.44;100.00;102520.47;4996109;28;20221;-74
2023/05/30 07:23:34;;;;;;;14.10;4.30;;;;;;;15.39;100.00;102556.50;5008181;28;20199;-74
2023/05/30 07:26:00;;;;;;;18.67;4.83;;;;;;;15.44;100.00;102562.66;5011226;28;20199;-73
2023/05/30 07:28:25;;;;;;;13.93;4.33;;;;;;;15.79;100.00;102520.53;5007917;28;20569;-73
2023/05/30 07:30:51;;;;;;;13.37;4.47;;;;;;;16.11;100.00;102493.75;5006001;28;20218;-74
2023/05/30 07:33:16;;;;;;;13.13;3.93;;;;;;;15.91;100.00;102499.28;5003390;28;20200;-74
2023/05/30 07:35:42;;;;;;;14.20;4.60;;;;;;;15.92;100.00;102514.84;5008027;28;20963;-74
2023/05/30 07:38:07;;;;;;;12.57;4.27;;;;;;;16.03;100.00;102479.78;5023672;28;20210;-74
2023/05/30 07:40:33;;;;;;;13.83;4.07;;;;;;;15.95;100.00;102506.28;4977074;28;20322;-74
2023/05/30 07:42:58;;;;;;;13.17;4.20;;;;;;;15.94;100.00;102492.47;5009079;28;20218;-73
2023/05/30 07:45:23;;;;;;;12.87;3.73;;;;;;;15.91;100.00;102507.03;5011242;28;20195;-74
2023/05/30 07:47:49;;;;;;;11.43;4.03;;;;;;;15.91;100.00;102494.13;5007681;28;20294;-73
2023/05/30 07:50:14;;;;;;;10.37;4.27;;;;;;;15.86;100.00;102465.63;5001268;28;20865;-72
2023/05/30 07:52:40;;;;;;;11.33;4.10;;;;;;;15.98;100.00;102483.13;4997852;28;20222;-74
2023/05/30 07:55:06;;;;;;;14.43;4.30;;;;;;;15.97;100.00;102502.91;5009277;28;20701;-74
2023/05/30 07:57:31;;;;;;;15.97;4.30;;;;;;;15.90;100.00;102536.31;4996493;28;20230;-73
2023/05/30 07:59:58;;;;;;;14.23;4.17;;;;;;;16.01;100.00;102535.75;5007123;28;20219;-74
2023/05/30 08:02:25;;;;;;;11.80;4.33;;;;;;;16.07;100.00;102483.34;5009955;28;20207;-75
2023/05/30 08:04:52;;;;;;;10.10;4.20;;;;;;;16.29;100.00;102478.69;5005012;28;20275;-73
2023/05/30 08:07:18;;;;;;;12.87;3.47;;;;;;;16.47;100.00;102479.13;5017165;28;20928;-74
2023/05/30 08:09:44;;;;;;;12.13;4.57;;;;;;;16.48;100.00;102501.56;5011617;28;20195;-74
2023/05/30 08:12:17;;;;;;;8.63;3.60;;;;;;;16.64;100.00;102472.59;5008919;28;20199;-73
2023/05/30 08:14:42;;;;;;;11.03;3.87;;;;;;;16.63;100.00;102423.41;5004054;28;20685;-75
2023/05/30 08:17:11;;;;;;;9.93;3.93;;;;;;;16.40;100.00;102466.03;5009500;28;20209;-74
2023/05/30 08:19:36;;;;;;;12.67;4.33;;;;;;;16.39;100.00;102484.94;4992338;28;20206;-75
2023/05/30 08:22:03;;;;;;;11.43;4.03;;;;;;;16.46;100.00;102494.59;4991133;28;20294;-73
2023/05/30 08:24:29;;;;;;;12.77;4.17;;;;;;;16.80;100.00;102479.81;5010178;28;20214;-74
2023/05/30 08:26:55;;;;;;;11.73;4.40;;;;;;;16.87;100.00;102440.31;5010423;28;20187;-73
2023/05/30 08:29:20;;;;;;;11.20;3.70;;;;;;;16.85;100.00;102417.81;4995057;28;21040;-74
2023/05/30 08:31:46;;;;;;;9.67;4.20;;;;;;;16.76;100.00;102391.78;5009032;28;20214;-74
2023/05/30 08:34:11;;;;;;;10.20;3.90;;;;;;;16.57;100.00;102442.25;4988056;28;20712;-74
2023/05/30 08:36:37;;;;;;;10.10;3.93;;;;;;;16.62;100.00;102470.81;5002047;28;20618;-73
2023/05/30 08:39:02;;;;;;;12.87;4.40;;;;;;;16.80;100.00;102468.63;5015511;28;20594;-73
2023/05/30 08:41:29;;;;;;;12.73;4.10;;;;;;;16.72;100.00;102426.19;5011018;28;20226;-74
2023/05/30 08:43:55;;;;;;;11.37;4.33;;;;;;;16.83;100.00;102451.44;5004773;28;20218;-73
2023/05/30 08:46:20;;;;;;;10.57;4.00;;;;;;;16.99;100.00;102434.47;5010831;28;20206;-74
2023/05/30 08:48:47;;;;;;;9.53;3.80;;;;;;;17.05;100.00;102439.75;4988955;28;20201;-75
2023/05/30 08:51:15;;;;;;;12.43;4.30;;;;;;;17.09;100.00;102392.38;5008942;28;20997;-73
2023/05/30 08:53:51;;;;;;;13.67;5.30;;;;;;;17.04;100.00;102433.69;5009655;28;20215;-74
2023/05/30 08:56:47;;;;;;;9.23;3.73;;;;;;;17.22;100.00;102440.97;5004836;28;20635;-74
2023/05/30 08:59:15;;;;;;;12.17;3.37;;;;;;;17.30;100.00;102414.34;4988830;28;20855;-74
2023/05/30 09:01:41;;;;;;;12.67;4.57;;;;;;;17.24;100.00;102405.59;5006034;28;20964;-74
2023/05/30 09:04:08;;;;;;;12.50;4.00;;;;;;;17.22;100.00;102418.50;5012660;28;20201;-75
2023/05/30 09:06:37;;;;;;;9.43;3.67;;;;;;;17.23;100.00;102412.47;5004905;28;20617;-74
2023/05/30 09:09:03;;;;;;;10.40;4.07;;;;;;;17.36;100.00;102419.63;5015669;28;20229;-77
2023/05/30 09:11:29;;;;;;;8.67;3.27;;;;;;;17.40;100.00;102416.25;5007276;28;20302;-75
2023/05/30 09:13:55;;;;;;;11.33;3.90;;;;;;;17.40;100.00;102451.69;4989719;28;20536;-74
2023/05/30 09:16:21;;;;;;;12.37;4.27;;;;;;;17.35;100.00;102445.47;5005782;28;20201;-74
2023/05/30 09:18:46;;;;;;;10.17;4.33;;;;;;;17.16;100.00;102459.84;5012559;28;20202;-75
2023/05/30 09:21:12;;;;;;;11.50;4.60;;;;;;;17.23;100.00;102447.88;5011439;28;20257;-73
2023/05/30 09:23:40;;;;;;;9.03;4.10;;;;;;;17.31;100.00;102460.09;5005141;28;20187;-73
2023/05/30 09:26:07;;;;;;;10.73;3.97;;;;;;;17.43;100.00;102454.31;5012998;28;20198;-73
2023/05/30 09:28:35;;;;;;;7.70;3.63;;;;;;;17.61;100.00;102427.00;5005786;28;20195;-73
2023/05/30 09:31:02;;;;;;;9.23;3.87;;;;;;;17.44;100.00;102392.16;5001515;28;20218;-73
2023/05/30 09:33:41;;;;;;;10.50;3.53;;;;;;;17.39;100.00;102449.88;5008658;28;20611;-73
2023/05/30 09:36:15;;;;;;;7.53;3.47;;;;;;;17.19;100.00;102438.31;5004222;28;20205;-73
2023/05/30 09:38:51;;;;;;;10.60;3.47;;;;;;;17.25;100.00;102474.66;5008524;28;20285;-73
2023/05/30 09:41:17;;;;;;;9.97;3.77;;;;;;;17.02;100.00;102465.59;5005146;28;20220;-73
2023/05/30 09:43:42;;;;;;;7.87;3.53;;;;;;;17.10;100.00;102482.13;5004949;28;20577;-73
2023/05/30 09:46:08;;;;;;;8.37;3.50;;;;;;;17.12;100.00;102494.28;5010378;28;20293;-73
2023/05/30 09:48:33;;;;;;;6.13;3.10;;;;;;;17.26;100.00;102500.59;4989443;28;20223;-73
2023/05/30 09:51:00;;;;;;;7.23;3.10;;;;;;;17.29;100.00;102458.34;5004975;28;20229;-73
2023/05/30 09:53:32;;;;;;;8.23;3.43;;;;;;;17.22;100.00;102472.03;5009740;28;20198;-73
2023/05/30 09:55:58;;;;;;;8.40;3.60;;;;;;;17.08;100.00;102491.59;4990012;28;20287;-73
2023/05/30 09:58:24;;;;;;;9.00;3.70;;;;;;;17.12;100.00;102507.22;5007436;28;20258;-74
2023/05/30 10:00:51;;;;;;;5.97;2.97;;;;;;;17.05;100.00;102507.97;4991384;28;20223;-73
2023/05/30 10:03:19;;;;;;;7.90;3.77;;;;;;;17.04;100.00;102516.53;5003998;28;20204;-75
2023/05/30 10:05:44;;;;;;;8.70;3.83;;;;;;;17.10;100.00;102539.09;5001088;28;20190;-73
2023/05/30 10:08:11;;;;;;;9.30;3.77;;;;;;;17.03;100.00;102550.16;4991623;28;20201;-73
2023/05/30 10:10:39;;;;;;;9.47;3.87;;;;;;;17.11;100.00;102522.72;5007350;28;20219;-74
2023/05/30 10:13:04;;;;;;;5.87;3.50;;;;;;;17.27;100.00;102554.13;4991456;28;20285;-73
2023/05/30 10:15:30;;;;;;;8.10;4.17;;;;;;;17.19;100.00;102529.81;5008072;28;20844;-74
2023/05/30 10:18:07;;;;;;;8.60;3.80;;;;;;;17.19;100.00;102553.13;4980220;28;20198;-73
2023/05/30 10:20:37;;;;;;;9.13;3.87;;;;;;;17.10;100.00;102552.94;5001389;28;20207;-74
2023/05/30 10:23:06;;;;;;;10.80;4.20;;;;;;;17.21;100.00;102522.94;4990510;28;20591;-73
2023/05/30 10:25:35;;;;;;;6.97;4.00;;;;;;;17.39;100.00;102536.28;5007142;28;20322;-74
2023/05/30 10:28:03;;;;;;;5.80;4.03;;;;;;;17.53;100.00;102539.97;5009926;28;20203;-74
2023/05/30 10:30:33;;;;;;;8.13;3.63;;;;;;;17.63;100.00;102509.91;4986281;28;20310;-73
2023/05/30 10:33:04;;;;;;;5.80;3.60;;;;;;;17.68;100.00;102523.84;5001256;28;20195;-73
2023/05/30 10:35:30;;;;;;;7.30;4.17;;;;;;;17.75;100.00;102487.69;5009794;28;20743;-73
2023/05/30 10:37:57;;;;;;;8.33;3.93;;;;;;;17.81;100.00;102469.66;5007826;28;20305;-73
2023/05/30 10:40:43;;;;;;;8.70;3.93;;;;;;;17.86;100.00;102446.38;5021861;28;20881;-73
2023/05/30 10:43:18;;;;;;;6.43;3.97;;;;;;;18.08;100.00;102456.22;4992954;28;20209;-73
2023/05/30 10:46:18;;;;;;;11.63;4.90;;;;;;;17.97;100.00;102496.69;5007569;28;20264;-73
2023/05/30 10:48:44;;;;;;;8.17;4.17;;;;;;;18.09;100.00;102448.47;5005191;28;20195;-73
2023/05/30 10:51:13;;;;;;;8.60;4.60;;;;;;;18.14;100.00;102433.84;5003779;28;20288;-73
2023/05/30 10:53:41;;;;;;;9.43;4.63;;;;;;;18.12;100.00;102409.63;4989747;28;20203;-73
2023/05/30 10:56:33;;;;;;;9.63;3.80;;;;;;;18.54;100.00;102420.59;4990926;28;20198;-74
2023/05/30 10:58:59;;;;;;;9.73;4.70;;;;;;;18.63;100.00;102407.72;4994998;28;20293;-73
2023/05/30 11:01:27;;;;;;;12.60;4.43;;;;;;;18.83;99.64;102387.19;5007795;28;20211;-73
2023/05/30 11:03:58;;;;;;;8.83;4.60;;;;;;;18.66;100.00;102384.38;5005081;28;20285;-73
2023/05/30 11:06:30;;;;;;;10.30;4.60;;;;;;;18.97;100.00;102401.19;5007111;28;20250;-74
2023/05/30 11:09:11;;;;;;;7.40;4.27;;;;;;;19.01;97.58;102372.66;5005612;28;20203;-73
2023/05/30 11:11:45;;;;;;;8.00;3.93;;;;;;;19.10;100.00;102384.84;5008717;28;20234;-73
2023/05/30 11:14:13;;;;;;;9.70;5.43;;;;;;;19.14;96.74;102360.63;4999617;28;20265;-73